Flight Track Log - Related Links

Times and Time Zones

All times are in EDT time to prevent confusion due to time zone crossing. See the SWA433 flight status page for this flight to view local times or setup timezone preferences in your user account.

Time Position Orientation Groundspeed Altitude Reporting Facility
EDT Latitude Longitude Course Direction KTS MPH feet Rate Location/Type
Fri 08:59:55 AM 41.8167 -87.7500 180° South 200 230 2,500  Level Chicago TRACON
Fri 09:00:55 AM 41.7833 -87.7000 132° Southeast 224 258 3,200 2,432 Climbing Chicago TRACON
Fri 09:03:05 AM 41.6719 -87.8239 220° Southwest 265 305 10,200 2,921 Climbing Chicago Center
Fri 09:04:06 AM 41.5964 -87.8433 191° South 284 327 12,500 2,390 Climbing Chicago Center
Fri 09:05:00 AM 41.1452 -87.8833 180° South  Level FlightAware Approximate
Fri 09:05:08 AM 41.5033 -87.8617 188° South 331 381 15,100  Level Chicago Center
Fri 09:06:10 AM 41.4031 -87.8794 188° South 353 406 17,700 2,585 Climbing Chicago Center
Fri 09:07:11 AM 41.2969 -87.8889 184° South 371 427 20,400 2,390 Climbing Chicago Center
Fri 09:08:13 AM 41.1872 -87.8917 181° South 386 444 22,600 2,129 Climbing Chicago Center
Fri 09:09:15 AM 41.0747 -87.8867 178° South 401 461 24,800 1,984 Climbing Chicago Center
Fri 09:10:17 AM 40.9614 -87.8836 179° South 407 468 26,700 1,707 Climbing Chicago Center
Fri 09:11:18 AM 40.8453 -87.8792 178° South 416 479 28,300 1,805 Climbing Chicago Center
Fri 09:12:20 AM 40.7019 -87.8753 179° South 429 494 30,400 2,032 Climbing Chicago Center
Fri 09:13:22 AM 40.5842 -87.8711 178° South 427 491 32,500 2,098 Climbing Chicago Center
Fri 09:14:23 AM 40.4694 -87.8678 179° South 416 479 34,700 1,854 Climbing Chicago Center
Fri 09:15:25 AM 40.3581 -87.8650 179° South 405 466 36,300 1,458 Climbing Chicago Center
Fri 09:16:10 AM 40.2764 -87.8633 179° South 402 463 37,300 1,302 Climbing Indianapolis Center
Fri 09:17:11 AM 40.1669 -87.8592 178° South 398 458 38,600 829 Climbing Indianapolis Center
Fri 09:18:13 AM 40.0367 -87.8533 178° South 394 453 39,000 194 Climbing Indianapolis Center
Fri 09:19:15 AM 39.9292 -87.8358 173° South 394 453 39,000  Level Indianapolis Center
Fri 09:20:17 AM 39.8225 -87.7997 165° South 398 458 39,000  Level Indianapolis Center
Fri 09:21:19 AM 39.7156 -87.7658 166° South 398 458 39,000  Level Indianapolis Center
Fri 09:22:20 AM 39.6086 -87.7325 166° South 397 457 39,000  Level Indianapolis Center
Fri 09:23:22 AM 39.5025 -87.6981 166° South 395 455 39,000  Level Indianapolis Center
Fri 09:24:24 AM 39.3739 -87.6572 166° South 398 458 39,000  Level Indianapolis Center
Fri 09:25:26 AM 39.2683 -87.6242 166° South 393 452 39,000  Level Indianapolis Center
Fri 09:26:28 AM 39.1617 -87.5914 167° South 395 455 39,000  Level Indianapolis Center
Fri 09:27:30 AM 39.0472 -87.5553 166° South 398 458 39,000  Level Indianapolis Center
Fri 09:28:31 AM 38.9389 -87.5222 167° South 399 459 39,000  Level Indianapolis Center
Fri 09:29:33 AM 38.8322 -87.4892 166° South 394 453 39,000  Level Indianapolis Center
Fri 09:30:35 AM 38.7242 -87.4550 166° South 398 458 39,000  Level Indianapolis Center
Fri 09:31:37 AM 38.6175 -87.4228 167° South 395 455 39,000  Level Indianapolis Center
Fri 09:32:39 AM 38.4894 -87.3831 166° South 396 456 39,000  Level Indianapolis Center
Fri 09:33:41 AM 38.3828 -87.3511 167° South 396 456 39,000  Level Indianapolis Center
Fri 09:34:43 AM 38.2764 -87.3181 166° South 397 457 39,000  Level Indianapolis Center
Fri 09:35:44 AM 38.1692 -87.2872 167° South 399 459 39,000  Level Indianapolis Center
Fri 09:36:46 AM 38.0631 -87.2536 166° South 396 456 39,000  Level Indianapolis Center
Fri 09:37:48 AM 37.9569 -87.2208 166° South 393 452 39,000  Level Indianapolis Center
Fri 09:38:50 AM 37.8294 -87.1819 166° South 392 451 39,000  Level Indianapolis Center
Fri 09:39:52 AM 37.7242 -87.1503 167° South 389 448 39,000  Level Indianapolis Center
Fri 09:40:54 AM 37.6189 -87.1181 166° South 388 447 39,000  Level Indianapolis Center
Fri 09:41:56 AM 37.5044 -87.0864 168° South 390 449 39,000  Level Indianapolis Center
Fri 09:42:44 AM 37.4189 -87.0458 159° South 397 457 39,000  Level Memphis Center
Fri 09:43:44 AM 37.3261 -87.0081 162° South 397 457 39,000  Level Memphis Center
Fri 09:44:44 AM 37.2228 -86.9603 160° South 397 457 39,000  Level Memphis Center
Fri 09:45:44 AM 37.1175 -86.9153 161° South 397 457 39,000  Level Memphis Center
Fri 09:46:44 AM 37.0161 -86.8678 159° South 397 457 39,000  Level Memphis Center
Fri 09:47:44 AM 36.9106 -86.8231 161° South 392 451 39,000  Level Memphis Center
Fri 09:48:44 AM 36.8050 -86.7758 160° South 392 451 39,000  Level Memphis Center
Fri 09:49:44 AM 36.6911 -86.7239 160° South 392 451 39,000  Level Memphis Center
Fri 09:50:44 AM 36.5875 -86.6769 160° South 397 457 39,000  Level Memphis Center
Fri 09:51:44 AM 36.4819 -86.6300 160° South 397 457 39,000  Level Memphis Center
Fri 09:52:44 AM 36.3742 -86.5836 161° South 402 463 39,000  Level Memphis Center
Fri 09:53:44 AM 36.2667 -86.5397 162° South 407 468 39,000  Level Memphis Center
Fri 09:54:44 AM 36.1714 -86.4978 160° South 407 468 39,000  Level Memphis Center
Fri 09:55:44 AM 36.0658 -86.4539 161° South 407 468 39,000  Level Memphis Center
Fri 09:56:44 AM 35.9622 -86.4103 161° South 407 468 39,000  Level Memphis Center
Fri 09:59:25 AM 35.6706 -86.2858 161° South 403 464 39,000  Level Atlanta Center
Fri 10:00:25 AM 35.5608 -86.2419 162° South 395 455 39,000  Level Atlanta Center
Fri 10:01:25 AM 35.4553 -86.1931 159° South 401 461 39,000  Level Atlanta Center
Fri 10:02:25 AM 35.3497 -86.1497 161° South 401 461 39,000  Level Atlanta Center
Fri 10:03:25 AM 35.2419 -86.1061 162° South 401 461 39,000  Level Atlanta Center
Fri 10:04:25 AM 35.1467 -86.0658 161° South 401 461 39,000  Level Atlanta Center
Fri 10:05:25 AM 35.0389 -86.0200 161° South 401 461 39,000  Level Atlanta Center
Fri 10:06:25 AM 34.9289 -85.9794 163° South 401 461 39,000  Level Atlanta Center
Fri 10:07:25 AM 34.8086 -85.9286 161° South 407 468 39,000  Level Atlanta Center
Fri 10:08:25 AM 34.7008 -85.8858 162° South 407 468 39,000  Level Atlanta Center
Fri 10:09:25 AM 34.5886 -85.8453 163° South 412 474 39,000  Level Atlanta Center
Fri 10:10:25 AM 34.4869 -85.8078 163° South 422 486 39,000  Level Atlanta Center
Fri 10:11:25 AM 34.3708 -85.7653 163° South 422 486 39,000  Level Atlanta Center
Fri 10:12:25 AM 34.2567 -85.7228 163° South 417 480 39,000  Level Atlanta Center
Fri 10:13:25 AM 34.1464 -85.6828 163° South 422 486 39,000  Level Atlanta Center
Fri 10:14:25 AM 34.0364 -85.6406 162° South 422 486 39,000  Level Atlanta Center
Fri 10:15:25 AM 33.9242 -85.5961 162° South 422 486 39,000  Level Atlanta Center
Fri 10:16:25 AM 33.8119 -85.5564 164° South 416 479 39,000  Level Atlanta Center
Fri 10:17:25 AM 33.7000 -85.5144 163° South 421 484 39,000  Level Atlanta Center
Fri 10:18:25 AM 33.5897 -85.4728 163° South 416 479 39,000  Level Atlanta Center
Fri 10:19:25 AM 33.4775 -85.4311 163° South 421 484 39,000  Level Atlanta Center
Fri 10:20:25 AM 33.3694 -85.3919 163° South 413 475 39,000  Level Atlanta Center
Fri 10:21:25 AM 33.2531 -85.3478 162° South 419 482 39,000  Level Atlanta Center
Fri 10:22:25 AM 33.1408 -85.3042 162° South 418 481 39,000  Level Atlanta Center
Fri 10:23:25 AM 33.0347 -85.2603 161° South 418 481 39,000  Level Atlanta Center
Fri 10:24:25 AM 32.9244 -85.2192 163° South 418 481 39,000  Level Atlanta Center
Fri 10:25:25 AM 32.8122 -85.1758 162° South 423 487 39,000  Level Atlanta Center
Fri 10:26:25 AM 32.7019 -85.1372 164° South 423 487 39,000  Level Atlanta Center
Fri 10:27:25 AM 32.5917 -85.0964 163° South 423 487 39,000  Level Atlanta Center
Fri 10:28:25 AM 32.4772 -85.0558 163° South 423 487 39,000  Level Atlanta Center
Fri 10:29:25 AM 32.3647 -85.0150 163° South 418 481 39,000  Level Atlanta Center
Fri 10:30:25 AM 32.2753 -84.9847 164° South 424 488 39,000  Level Atlanta Center
Fri 10:31:25 AM 32.1525 -84.9442 164° South 418 481 39,000  Level Atlanta Center
Fri 10:32:20 AM 32.0442 -84.9025 162° South 425 489 39,000  Level Jacksonville Center
Fri 10:33:20 AM 31.9300 -84.8606 163° South 430 495 39,000  Level Jacksonville Center
Fri 10:34:20 AM 31.8075 -84.8164 163° South 430 495 39,000  Level Jacksonville Center
Fri 10:35:20 AM 31.6911 -84.7750 163° South 430 495 39,000  Level Jacksonville Center
Fri 10:36:20 AM 31.5747 -84.7361 164° South 436 502 39,000 -250 Level Jacksonville Center
Fri 10:37:20 AM 31.4586 -84.6947 163° South 436 502 38,500 -750 Descending Jacksonville Center
Fri 10:38:20 AM 31.3442 -84.6536 163° South 431 496 37,500 -950 Descending Jacksonville Center
Fri 10:39:20 AM 31.2278 -84.6103 162° South 436 502 36,600 -950 Descending Jacksonville Center
Fri 10:40:20 AM 31.1156 -84.5717 164° South 436 502 35,600 -800 Descending Jacksonville Center
Fri 10:41:20 AM 31.0014 -84.5308 163° South 436 502 35,000 -300 Descending Jacksonville Center
Fri 10:42:20 AM 30.8869 -84.4928 164° South 436 502 35,000  Level Jacksonville Center
Fri 10:43:20 AM 30.7728 -84.4519 163° South 436 502 35,000  Level Jacksonville Center
Fri 10:44:20 AM 30.6561 -84.4114 163° South 436 502 35,000  Level Jacksonville Center
Fri 10:45:20 AM 30.5647 -84.3786 163° South 441 507 35,000  Level Jacksonville Center
Fri 10:46:20 AM 30.4364 -84.2972 151° Southeast 436 502 35,000  Level Jacksonville Center
Fri 10:47:20 AM 30.3306 -84.2258 150° Southeast 431 496 35,000  Level Jacksonville Center
Fri 10:48:20 AM 30.2269 -84.1594 151° Southeast 437 503 35,000 -400 Level Jacksonville Center
Fri 10:49:20 AM 30.1272 -84.0958 151° Southeast 437 503 34,200 -900 Descending Jacksonville Center
Fri 10:50:20 AM 30.0233 -84.0272 150° Southeast 437 503 33,200 -600 Descending Jacksonville Center
Fri 10:51:20 AM 29.9197 -83.9614 151° Southeast 437 503 33,000 -100 Descending Jacksonville Center
Fri 10:52:20 AM 29.8158 -83.8931 150° Southeast 437 503 33,000  Level Jacksonville Center
Fri 10:53:20 AM 29.7139 -83.8300 152° Southeast 431 496 33,000  Level Jacksonville Center
Fri 10:54:20 AM 29.6100 -83.7622 150° Southeast 431 496 33,000 -100 Level Jacksonville Center
Fri 10:55:20 AM 29.5083 -83.6944 150° Southeast 431 496 32,800 -1,100 Descending Jacksonville Center
Fri 10:56:20 AM 29.4106 -83.6317 151° Southeast 421 484 30,800 -2,050 Descending Jacksonville Center
Fri 10:57:20 AM 29.3106 -83.5689 151° Southeast 416 479 28,700 -1,900 Descending Jacksonville Center
Fri 10:58:20 AM 29.2128 -83.5089 152° Southeast 405 466 27,000 -1,300 Descending Jacksonville Center
Fri 10:59:20 AM 29.1214 -83.4489 150° Southeast 394 453 26,100 -950 Descending Jacksonville Center
Fri 11:00:20 AM 29.0214 -83.3842 150° Southeast 394 453 25,100 -1,350 Descending Jacksonville Center
Fri 11:01:20 AM 28.9297 -83.3267 151° Southeast 389 448 23,400 -1,800 Descending Jacksonville Center
Fri 11:02:20 AM 28.8422 -83.2694 150° Southeast 383 441 21,500 -1,850 Descending Jacksonville Center
Fri 11:03:20 AM 28.7506 -83.2122 151° Southeast 373 429 19,700 -1,800 Descending Jacksonville Center
Fri 11:04:20 AM 28.6631 -83.1553 150° Southeast 373 429 17,900 -1,949 Descending Jacksonville Center
Fri 11:05:17 AM 28.5667 -83.1000 153° Southeast 350 403 15,900 -1,886 Descending Tampa TRACON
Fri 11:06:05 AM 28.5167 -83.0667 150° Southeast 341 392 14,600 -1,541 Descending Tampa TRACON
Fri 11:07:06 AM 28.4333 -83.0167 152° Southeast 328 377 13,100 -893 Descending Tampa TRACON
Fri 11:08:06 AM 28.3500 -82.9667 152° Southeast 303 349 12,800 -1,000 Descending Tampa TRACON
Fri 11:09:06 AM 28.2833 -82.9167 147° Southeast 302 348 11,100 -1,700 Descending Tampa TRACON
Fri 11:10:06 AM 28.2667 -82.8167 101° East 295 339 9,400 -1,300 Descending Tampa TRACON
Fri 11:11:06 AM 28.2667 -82.7333 90° East 284 327 8,500 -842 Descending Tampa TRACON
Fri 11:12:00 AM 28.2500 -82.6667 106° East 252 290 7,800 -1,000 Descending Tampa TRACON
Fri 11:13:00 AM 28.2333 -82.5833 103° East 243 280 6,600 -1,350 Descending Tampa TRACON
Fri 11:14:00 AM 28.2333 -82.5167 90° East 231 266 5,100 -1,333 Descending Tampa TRACON
Fri 11:15:06 AM 28.1833 -82.5000 164° South 212 244 3,800 -1,095 Descending Tampa TRACON
Fri 11:16:06 AM 28.1333 -82.5167 196° South 186 214 2,800 -1,000 Descending Tampa TRACON

Login

Don't have an account? Register now (free) for customized features, flight alerts, and more!